Time;durP1;ratioP1;P1;durP2;ratioP2;P2;SDS_P1;SDS_P2;PMS_P1;PMS_P2;Temp;Humidity;BMP_temperature;BMP_pressure;BME280_temperature;BME280_humidity;BME280_pressure;Samples;Min_cycle;Max_cycle;Signal;HPM_P1;HPM_P2
2022/05/13 00:01:44;;;;;;;11.47;3.00;;;;;;;;;;6101857;23;20181;-84
2022/05/13 00:04:14;;;;;;;8.20;2.27;;;;;;;;;;6102294;23;20209;-84
2022/05/13 00:06:43;;;;;;;7.43;1.97;;;;;;;;;;6102533;23;20179;-84
2022/05/13 00:09:11;;;;;;;7.13;2.00;;;;;;;;;;6101524;23;20188;-84
2022/05/13 00:11:40;;;;;;;5.93;3.43;;;;;;;;;;6101935;23;20184;-84
2022/05/13 00:14:10;;;;;;;8.20;3.23;;;;;;;;;;6102282;23;20236;-84
2022/05/13 00:16:38;;;;;;;11.17;4.60;;;;;;;;;;6128009;23;20185;-83
2022/05/13 00:19:10;;;;;;;13.80;3.57;;;;;;;;;;6101287;23;20194;-84
2022/05/13 00:21:40;;;;;;;5.80;2.37;;;;;;;;;;6127810;23;20172;-84
2022/05/13 00:24:09;;;;;;;15.73;3.90;;;;;;;;;;6127376;23;20182;-84
2022/05/13 00:26:38;;;;;;;16.50;4.60;;;;;;;;;;6101430;23;20180;-84
2022/05/13 00:29:06;;;;;;;6.03;1.37;;;;;;;;;;6101727;23;20175;-83
2022/05/13 00:31:35;;;;;;;12.87;5.23;;;;;;;;;;6101703;23;20173;-83
2022/05/13 00:34:04;;;;;;;3.20;1.87;;;;;;;;;;6101433;23;20201;-84
2022/05/13 00:36:32;;;;;;;3.77;2.40;;;;;;;;;;6101306;23;20178;-84
2022/05/13 00:39:02;;;;;;;7.87;3.00;;;;;;;;;;6101438;23;20182;-84
2022/05/13 00:41:31;;;;;;;12.90;2.53;;;;;;;;;;6101370;23;20178;-84
2022/05/13 00:44:00;;;;;;;17.90;7.13;;;;;;;;;;6101440;23;20188;-84
2022/05/13 00:46:29;;;;;;;6.93;6.00;;;;;;;;;;6126790;23;20182;-84
2022/05/13 00:48:59;;;;;;;6.23;2.67;;;;;;;;;;6101621;23;20182;-84
2022/05/13 00:51:29;;;;;;;20.37;4.77;;;;;;;;;;6100907;23;20186;-84
2022/05/13 00:53:57;;;;;;;10.90;2.67;;;;;;;;;;6127222;23;20186;-84
2022/05/13 00:56:27;;;;;;;5.87;3.70;;;;;;;;;;6101541;23;20189;-84
2022/05/13 00:58:57;;;;;;;9.03;2.73;;;;;;;;;;6126540;23;20174;-84
2022/05/13 01:01:25;;;;;;;6.57;3.30;;;;;;;;;;6101539;23;20234;-84
2022/05/13 01:03:54;;;;;;;3.77;1.40;;;;;;;;;;6101728;23;20201;-84
2022/05/13 01:06:24;;;;;;;5.57;1.20;;;;;;;;;;6126664;23;20175;-84
2022/05/13 01:08:52;;;;;;;4.53;1.63;;;;;;;;;;6101380;23;20179;-84
2022/05/13 01:11:22;;;;;;;2.67;1.67;;;;;;;;;;6101211;23;20176;-84
2022/05/13 01:13:55;;;;;;;5.20;4.70;;;;;;;;;;6101215;23;20181;-84
2022/05/13 01:16:25;;;;;;;14.23;3.30;;;;;;;;;;6125567;23;20243;-84
2022/05/13 01:18:53;;;;;;;7.67;2.20;;;;;;;;;;6101283;23;20265;-84
2022/05/13 01:21:23;;;;;;;9.30;4.90;;;;;;;;;;6101075;23;20209;-84
2022/05/13 01:23:53;;;;;;;4.77;2.83;;;;;;;;;;6101267;23;20178;-84
2022/05/13 01:26:25;;;;;;;7.73;2.07;;;;;;;;;;6101250;23;20175;-84
2022/05/13 01:28:55;;;;;;;6.10;2.57;;;;;;;;;;6126996;23;20213;-84
2022/05/13 01:31:24;;;;;;;5.90;2.90;;;;;;;;;;6101152;23;20177;-84
2022/05/13 01:33:54;;;;;;;6.53;2.07;;;;;;;;;;6101428;23;20182;-82
2022/05/13 01:36:22;;;;;;;5.90;1.80;;;;;;;;;;6126880;23;20175;-82
2022/05/13 01:38:53;;;;;;;6.03;2.80;;;;;;;;;;6100843;23;20182;-85
2022/05/13 01:41:22;;;;;;;4.73;2.03;;;;;;;;;;6100932;23;20195;-85
2022/05/13 01:43:50;;;;;;;7.03;2.53;;;;;;;;;;6126920;23;20186;-84
2022/05/13 01:46:20;;;;;;;7.90;3.40;;;;;;;;;;6100843;23;20287;-83
2022/05/13 01:48:49;;;;;;;6.60;2.50;;;;;;;;;;6101482;23;20186;-83
2022/05/13 01:51:17;;;;;;;12.23;4.43;;;;;;;;;;6100631;23;20174;-83
2022/05/13 01:53:46;;;;;;;7.60;2.30;;;;;;;;;;6101128;23;20179;-83
2022/05/13 01:56:16;;;;;;;3.23;1.50;;;;;;;;;;6100705;23;20179;-83
2022/05/13 01:58:44;;;;;;;3.20;1.83;;;;;;;;;;6100973;23;20182;-83
2022/05/13 02:01:12;;;;;;;8.17;2.30;;;;;;;;;;6123769;23;20209;-83
2022/05/13 02:03:47;;;;;;;6.47;2.17;;;;;;;;;;6126107;23;20263;-83
2022/05/13 02:06:18;;;;;;;6.23;3.07;;;;;;;;;;6124989;23;20177;-83
2022/05/13 02:08:46;;;;;;;5.80;2.23;;;;;;;;;;6125130;23;20174;-81
2022/05/13 02:11:16;;;;;;;3.60;2.03;;;;;;;;;;6125279;23;20170;-84
2022/05/13 02:13:45;;;;;;;6.97;2.07;;;;;;;;;;6125529;23;20173;-83
2022/05/13 02:16:14;;;;;;;8.93;6.00;;;;;;;;;;6125233;23;20184;-83
2022/05/13 02:18:42;;;;;;;1.53;1.43;;;;;;;;;;6125241;23;20178;-83
2022/05/13 02:21:11;;;;;;;3.53;1.90;;;;;;;;;;6126622;23;20192;-83
2022/05/13 02:23:39;;;;;;;1.23;1.13;;;;;;;;;;6125321;23;20265;-83
2022/05/13 02:26:09;;;;;;;0.50;0.50;;;;;;;;;;6126493;23;20203;-83
2022/05/13 02:28:39;;;;;;;3.00;1.37;;;;;;;;;;6125215;23;20182;-83
2022/05/13 02:31:08;;;;;;;11.20;3.07;;;;;;;;;;6126504;23;20168;-83
2022/05/13 02:33:37;;;;;;;6.10;2.37;;;;;;;;;;6124943;23;20213;-83
2022/05/13 02:36:06;;;;;;;16.17;3.10;;;;;;;;;;6124853;23;20179;-83
2022/05/13 02:38:35;;;;;;;13.80;3.50;;;;;;;;;;6124698;23;20208;-83
2022/05/13 02:41:12;;;;;;;1.60;1.50;;;;;;;;;;6124646;23;20286;-84
2022/05/13 02:43:43;;;;;;;8.93;2.63;;;;;;;;;;6124642;23;20192;-83
2022/05/13 02:46:12;;;;;;;5.60;2.00;;;;;;;;;;6126246;23;20208;-84
2022/05/13 02:48:41;;;;;;;7.87;3.70;;;;;;;;;;6126343;23;20181;-83
2022/05/13 02:51:09;;;;;;;12.47;2.33;;;;;;;;;;6125987;23;20175;-83
2022/05/13 02:53:38;;;;;;;5.43;2.73;;;;;;;;;;6124886;23;20186;-84
2022/05/13 02:56:07;;;;;;;2.97;2.10;;;;;;;;;;6124833;23;20179;-83
2022/05/13 02:58:36;;;;;;;5.03;1.50;;;;;;;;;;6124873;23;20185;-84
2022/05/13 03:01:06;;;;;;;5.80;2.00;;;;;;;;;;6124916;23;20213;-83
2022/05/13 03:03:35;;;;;;;4.50;1.70;;;;;;;;;;6125207;23;20203;-83
2022/05/13 03:06:03;;;;;;;3.43;2.13;;;;;;;;;;6124693;23;20175;-83
2022/05/13 03:08:31;;;;;;;3.80;2.07;;;;;;;;;;6124935;23;20190;-84
2022/05/13 03:11:00;;;;;;;8.17;2.27;;;;;;;;;;6124489;23;20176;-84
2022/05/13 03:13:28;;;;;;;7.90;3.50;;;;;;;;;;6126739;23;20173;-83
2022/05/13 03:15:56;;;;;;;7.00;3.10;;;;;;;;;;6126708;23;20244;-84
2022/05/13 03:18:26;;;;;;;7.30;2.87;;;;;;;;;;6127292;23;20181;-83
2022/05/13 03:20:55;;;;;;;3.23;1.53;;;;;;;;;;6127175;23;20195;-84
2022/05/13 03:23:23;;;;;;;2.37;1.57;;;;;;;;;;6128012;23;20179;-83
2022/05/13 03:25:51;;;;;;;2.97;1.80;;;;;;;;;;6126807;23;20227;-83
2022/05/13 03:28:20;;;;;;;4.13;2.33;;;;;;;;;;6126316;23;20182;-84
2022/05/13 03:30:50;;;;;;;7.57;2.67;;;;;;;;;;6126549;23;20177;-83
2022/05/13 03:33:19;;;;;;;7.43;2.03;;;;;;;;;;6126920;23;20204;-83
2022/05/13 03:35:58;;;;;;;8.63;2.30;;;;;;;;;;6126728;23;20185;-83
2022/05/13 03:38:26;;;;;;;5.23;2.27;;;;;;;;;;6126656;23;20176;-83
2022/05/13 03:40:54;;;;;;;8.53;2.43;;;;;;;;;;6126416;23;20197;-82
2022/05/13 03:43:23;;;;;;;5.80;2.43;;;;;;;;;;6127801;23;20173;-82
2022/05/13 03:45:51;;;;;;;7.47;3.90;;;;;;;;;;6126741;23;20193;-84
2022/05/13 03:48:20;;;;;;;5.50;2.80;;;;;;;;;;6126588;23;20204;-83
2022/05/13 03:50:49;;;;;;;8.07;2.23;;;;;;;;;;6126755;23;20177;-83
2022/05/13 03:53:18;;;;;;;2.50;1.90;;;;;;;;;;6126922;23;20181;-85
2022/05/13 03:55:47;;;;;;;5.00;2.77;;;;;;;;;;6126470;23;20199;-82
2022/05/13 03:58:15;;;;;;;7.57;2.00;;;;;;;;;;6127769;23;20197;-85
2022/05/13 04:00:45;;;;;;;5.90;2.77;;;;;;;;;;6127554;23;20215;-82
2022/05/13 04:03:13;;;;;;;9.17;3.97;;;;;;;;;;6102139;23;20201;-82
2022/05/13 04:11:15;;;;;;;8.97;3.30;;;;;;;;;;6102218;23;20226;-83
2022/05/13 04:16:29;;;;;;;7.67;2.57;;;;;;;;;;6128033;23;20219;-84
2022/05/13 04:18:58;;;;;;;5.60;2.13;;;;;;;;;;6102032;23;20237;-82
2022/05/13 04:21:29;;;;;;;5.43;2.93;;;;;;;;;;6101782;23;20194;-83
2022/05/13 04:24:00;;;;;;;7.77;3.00;;;;;;;;;;6101898;23;20185;-83
2022/05/13 04:26:29;;;;;;;5.33;1.67;;;;;;;;;;6127446;23;20179;-83
2022/05/13 04:28:58;;;;;;;3.67;2.00;;;;;;;;;;6101579;23;20188;-83
2022/05/13 04:31:27;;;;;;;7.30;2.27;;;;;;;;;;6101912;23;20170;-83
2022/05/13 04:33:55;;;;;;;8.13;3.10;;;;;;;;;;6101826;23;20177;-82
2022/05/13 04:36:24;;;;;;;9.67;3.07;;;;;;;;;;6101667;23;20180;-83
2022/05/13 04:38:53;;;;;;;5.73;1.70;;;;;;;;;;6101890;23;20213;-83
2022/05/13 04:44:10;;;;;;;7.57;2.63;;;;;;;;;;6101737;23;20177;-84
2022/05/13 04:46:39;;;;;;;5.10;2.40;;;;;;;;;;6101916;23;20177;-83
2022/05/13 04:49:07;;;;;;;5.80;2.77;;;;;;;;;;6126983;23;20177;-82
2022/05/13 04:51:36;;;;;;;10.03;3.67;;;;;;;;;;6101419;23;20183;-83
2022/05/13 04:54:05;;;;;;;7.73;2.50;;;;;;;;;;6101425;23;20211;-83
2022/05/13 04:56:35;;;;;;;4.67;2.67;;;;;;;;;;6101458;23;20181;-84
2022/05/13 04:59:04;;;;;;;6.47;2.27;;;;;;;;;;6100967;23;20181;-83
2022/05/13 05:01:33;;;;;;;4.43;2.30;;;;;;;;;;6101599;23;20211;-83
2022/05/13 05:04:02;;;;;;;4.63;2.23;;;;;;;;;;6126793;23;20194;-83
2022/05/13 05:06:30;;;;;;;9.00;3.33;;;;;;;;;;6102226;23;20177;-83
2022/05/13 05:08:58;;;;;;;5.03;2.60;;;;;;;;;;6101484;23;20253;-84
2022/05/13 05:11:31;;;;;;;4.60;1.63;;;;;;;;;;6126799;23;20166;-84
2022/05/13 05:14:01;;;;;;;3.60;1.33;;;;;;;;;;6101115;23;20179;-84
2022/05/13 05:16:29;;;;;;;10.30;3.47;;;;;;;;;;6101529;23;20188;-83
2022/05/13 05:18:59;;;;;;;3.13;1.53;;;;;;;;;;6101227;23;20226;-83
2022/05/13 05:21:29;;;;;;;2.47;1.80;;;;;;;;;;6101373;23;20303;-83
2022/05/13 05:23:59;;;;;;;3.67;2.30;;;;;;;;;;6101189;23;20250;-83
2022/05/13 05:26:27;;;;;;;8.00;2.37;;;;;;;;;;6101388;23;20182;-84
2022/05/13 05:28:55;;;;;;;7.13;2.27;;;;;;;;;;6101275;23;20181;-82
2022/05/13 05:31:25;;;;;;;0.87;0.87;;;;;;;;;;6127270;23;20216;-83
2022/05/13 05:33:53;;;;;;;5.60;2.67;;;;;;;;;;6126953;23;20220;-82
2022/05/13 05:36:22;;;;;;;8.67;2.17;;;;;;;;;;6101234;23;20200;-82
2022/05/13 05:38:50;;;;;;;2.43;2.07;;;;;;;;;;6101057;23;20233;-82
2022/05/13 05:41:19;;;;;;;5.07;2.03;;;;;;;;;;6100954;23;20179;-82
2022/05/13 05:43:47;;;;;;;1.33;1.27;;;;;;;;;;6100753;23;20212;-82
2022/05/13 05:46:15;;;;;;;7.40;2.00;;;;;;;;;;6101054;23;20173;-81
2022/05/13 05:48:45;;;;;;;3.83;1.77;;;;;;;;;;6126597;23;20181;-83
2022/05/13 05:51:14;;;;;;;2.57;1.63;;;;;;;;;;6127067;23;20183;-82
2022/05/13 05:59:13;;;;;;;3.13;1.13;;;;;;;;;;6126868;23;20202;-82
2022/05/13 06:01:42;;;;;;;3.33;1.60;;;;;;;;;;6126802;23;20178;-82
2022/05/13 06:04:17;;;;;;;2.07;1.27;;;;;;;;;;6126166;23;20245;-81
2022/05/13 06:06:45;;;;;;;5.50;2.07;;;;;;;;;;6125277;23;20174;-81
2022/05/13 06:09:14;;;;;;;5.20;1.73;;;;;;;;;;6100985;23;20189;-82
2022/05/13 06:11:42;;;;;;;2.77;2.20;;;;;;;;;;6100364;23;20224;-82
2022/05/13 06:14:11;;;;;;;2.97;1.93;;;;;;;;;;6100869;23;20187;-82
2022/05/13 06:16:39;;;;;;;6.33;2.63;;;;;;;;;;6100421;23;20186;-82
2022/05/13 06:19:08;;;;;;;4.17;2.00;;;;;;;;;;6126144;23;20234;-83
2022/05/13 06:21:37;;;;;;;1.67;1.23;;;;;;;;;;6100916;23;20174;-83
2022/05/13 06:24:06;;;;;;;5.53;1.43;;;;;;;;;;6100486;23;20252;-82
2022/05/13 06:26:35;;;;;;;4.10;1.70;;;;;;;;;;6100832;23;20186;-82
2022/05/13 06:29:05;;;;;;;3.90;2.73;;;;;;;;;;6126531;23;20230;-83
2022/05/13 06:31:34;;;;;;;4.93;1.50;;;;;;;;;;6101080;23;20179;-83
2022/05/13 06:34:02;;;;;;;3.73;1.30;;;;;;;;;;6126773;23;20179;-82
2022/05/13 06:36:31;;;;;;;12.10;2.20;;;;;;;;;;6127173;23;20181;-83
2022/05/13 06:39:02;;;;;;;4.80;2.10;;;;;;;;;;6101201;23;20261;-82
2022/05/13 06:41:31;;;;;;;4.20;2.50;;;;;;;;;;6100399;23;20232;-82
2022/05/13 06:43:59;;;;;;;1.93;1.33;;;;;;;;;;6099640;23;20202;-83
2022/05/13 06:46:28;;;;;;;8.53;3.00;;;;;;;;;;6098675;23;20210;-83
2022/05/13 06:48:58;;;;;;;2.23;2.03;;;;;;;;;;6102354;23;20197;-83
2022/05/13 06:51:26;;;;;;;6.87;3.10;;;;;;;;;;6120206;23;20304;-83
2022/05/13 06:53:55;;;;;;;3.43;1.73;;;;;;;;;;6101160;23;20185;-83
2022/05/13 06:56:24;;;;;;;3.47;2.13;;;;;;;;;;6102039;23;20252;-83
2022/05/13 06:58:55;;;;;;;2.00;1.10;;;;;;;;;;6102659;23;20193;-82
2022/05/13 07:01:29;;;;;;;5.13;1.83;;;;;;;;;;6103191;23;20178;-82
2022/05/13 07:04:05;;;;;;;4.80;1.70;;;;;;;;;;6102363;23;20205;-83
2022/05/13 07:06:35;;;;;;;2.47;1.67;;;;;;;;;;6102180;23;20269;-84
2022/05/13 07:09:06;;;;;;;2.50;1.20;;;;;;;;;;6101768;23;20186;-83
2022/05/13 07:11:39;;;;;;;4.27;1.73;;;;;;;;;;6101628;23;20215;-83
2022/05/13 07:14:09;;;;;;;5.73;2.30;;;;;;;;;;6125817;23;20174;-83
2022/05/13 07:16:40;;;;;;;6.63;2.53;;;;;;;;;;6102346;23;20179;-82
2022/05/13 07:19:14;;;;;;;7.90;1.77;;;;;;;;;;6123386;23;20182;-81
2022/05/13 07:21:50;;;;;;;4.90;1.90;;;;;;;;;;6100169;23;20179;-82
2022/05/13 07:24:25;;;;;;;6.27;1.53;;;;;;;;;;6102260;23;20210;-84
2022/05/13 07:27:00;;;;;;;2.27;1.67;;;;;;;;;;6102979;23;20179;-84
2022/05/13 07:29:38;;;;;;;9.60;2.07;;;;;;;;;;6097539;23;20187;-85
2022/05/13 07:32:16;;;;;;;4.90;2.00;;;;;;;;;;6125714;23;20187;-85
2022/05/13 07:34:51;;;;;;;8.77;1.90;;;;;;;;;;6100952;23;20178;-85
2022/05/13 07:37:31;;;;;;;3.13;1.80;;;;;;;;;;6101477;23;20179;-87
2022/05/13 07:43:14;;;;;;;10.27;4.30;;;;;;;;;;6011502;23;20216;-85
2022/05/13 07:45:55;;;;;;;2.47;0.83;;;;;;;;;;6013302;23;20185;-84
2022/05/13 07:48:25;;;;;;;2.57;1.33;;;;;;;;;;6087382;23;20207;-85
2022/05/13 07:54:06;;;;;;;11.50;2.73;;;;;;;;;;6100662;23;20183;-85
2022/05/13 07:57:21;;;;;;;4.20;1.20;;;;;;;;;;6072753;23;20243;-85
2022/05/13 08:03:12;;;;;;;8.27;1.87;;;;;;;;;;6011495;23;20317;-85
2022/05/13 08:05:51;;;;;;;2.10;1.43;;;;;;;;;;6024272;23;20233;-85
2022/05/13 08:08:35;;;;;;;5.20;1.63;;;;;;;;;;6012735;23;20193;-84
2022/05/13 08:11:11;;;;;;;8.67;2.10;;;;;;;;;;6012768;23;20213;-84
2022/05/13 08:13:52;;;;;;;3.23;2.07;;;;;;;;;;6012899;23;20184;-84
2022/05/13 08:16:29;;;;;;;11.60;2.00;;;;;;;;;;6035127;23;20193;-85
2022/05/13 08:19:16;;;;;;;1.93;0.93;;;;;;;;;;6037206;23;20192;-82
2022/05/13 08:21:49;;;;;;;5.07;2.10;;;;;;;;;;6023901;23;20189;-85
2022/05/13 08:24:49;;;;;;;3.27;1.30;;;;;;;;;;6097356;23;20235;-85
2022/05/13 08:27:27;;;;;;;5.57;2.67;;;;;;;;;;6095065;23;20180;-83
2022/05/13 08:30:01;;;;;;;5.80;1.87;;;;;;;;;;6099753;23;20187;-81
2022/05/13 08:32:42;;;;;;;5.73;1.80;;;;;;;;;;6099175;23;20180;-83
2022/05/13 08:35:40;;;;;;;4.17;1.90;;;;;;;;;;6103518;23;20200;-85
2022/05/13 08:42:10;;;;;;;4.53;1.87;;;;;;;;;;6098241;23;20179;-85
2022/05/13 08:45:20;;;;;;;2.83;1.03;;;;;;;;;;6090975;23;20210;-83
2022/05/13 08:48:15;;;;;;;6.37;2.13;;;;;;;;;;6100793;23;20187;-84
2022/05/13 08:51:20;;;;;;;5.03;1.70;;;;;;;;;;6085040;23;20181;-85
2022/05/13 08:53:59;;;;;;;3.93;2.20;;;;;;;;;;6098465;23;20183;-85
2022/05/13 08:56:34;;;;;;;5.47;1.97;;;;;;;;;;6100952;23;20217;-85
2022/05/13 08:59:08;;;;;;;3.63;1.73;;;;;;;;;;6101835;23;20190;-85
2022/05/13 09:02:04;;;;;;;1.73;1.63;;;;;;;;;;6120851;23;20312;-86
2022/05/13 09:05:02;;;;;;;1.40;1.20;;;;;;;;;;6124378;23;20252;-84
2022/05/13 09:07:51;;;;;;;5.23;2.50;;;;;;;;;;6124217;23;20207;-84
2022/05/13 09:10:29;;;;;;;2.00;1.40;;;;;;;;;;6124784;23;20183;-85
2022/05/13 09:13:25;;;;;;;4.53;1.60;;;;;;;;;;6125246;23;20184;-84
2022/05/13 09:16:16;;;;;;;4.57;1.57;;;;;;;;;;6124999;23;20211;-85
2022/05/13 09:19:06;;;;;;;6.53;2.63;;;;;;;;;;6124378;23;20181;-84
2022/05/13 09:21:44;;;;;;;6.10;2.50;;;;;;;;;;6124828;23;20184;-83
2022/05/13 09:24:32;;;;;;;4.27;1.27;;;;;;;;;;6124154;23;20251;-83
2022/05/13 09:27:21;;;;;;;4.90;1.93;;;;;;;;;;6124509;23;20192;-83
2022/05/13 09:30:04;;;;;;;3.43;1.57;;;;;;;;;;6149519;23;20187;-83
2022/05/13 09:32:45;;;;;;;2.87;1.20;;;;;;;;;;6124992;23;20176;-82
2022/05/13 09:35:34;;;;;;;5.40;2.47;;;;;;;;;;6125398;23;20203;-83
2022/05/13 09:38:21;;;;;;;7.23;2.80;;;;;;;;;;6125728;23;20179;-83
2022/05/13 09:41:06;;;;;;;4.67;1.53;;;;;;;;;;6125510;23;20184;-83
2022/05/13 09:44:04;;;;;;;3.77;2.03;;;;;;;;;;6125803;23;20192;-83
2022/05/13 09:46:44;;;;;;;8.03;2.50;;;;;;;;;;6125330;23;20180;-83
2022/05/13 09:49:33;;;;;;;3.00;1.63;;;;;;;;;;6125003;23;20239;-84
2022/05/13 09:52:15;;;;;;;3.50;1.37;;;;;;;;;;6125182;23;20246;-84
2022/05/13 09:54:52;;;;;;;7.67;2.00;;;;;;;;;;6125170;23;20183;-83
2022/05/13 09:57:34;;;;;;;4.77;1.67;;;;;;;;;;6124754;23;20216;-83
2022/05/13 10:00:20;;;;;;;7.57;1.90;;;;;;;;;;6124783;23;20217;-83
2022/05/13 10:03:08;;;;;;;6.80;1.80;;;;;;;;;;6124256;23;20176;-84
2022/05/13 10:05:56;;;;;;;4.87;2.27;;;;;;;;;;6125643;23;20197;-84
2022/05/13 10:08:52;;;;;;;5.00;1.73;;;;;;;;;;6125390;23;20271;-84
2022/05/13 10:14:27;;;;;;;4.80;1.87;;;;;;;;;;6125730;23;20172;-84
2022/05/13 10:17:16;;;;;;;2.40;1.97;;;;;;;;;;6125090;23;20180;-84
2022/05/13 10:20:01;;;;;;;2.43;1.10;;;;;;;;;;6125662;23;20203;-83
2022/05/13 10:22:59;;;;;;;2.90;1.90;;;;;;;;;;6123529;23;20187;-83
2022/05/13 10:26:10;;;;;;;2.97;1.63;;;;;;;;;;6123271;23;20220;-84
2022/05/13 10:32:24;;;;;;;9.87;3.17;;;;;;;;;;5937119;23;20180;-86
2022/05/13 10:35:28;;;;;;;9.83;3.63;;;;;;;;;;5981142;23;20183;-85
2022/05/13 10:38:27;;;;;;;11.13;3.43;;;;;;;;;;5978891;23;20187;-85
2022/05/13 10:58:21;;;;;;;4.00;2.23;;;;;;;;;;5803840;24;20282;-88
2022/05/13 11:07:53;;;;;;;2.17;1.83;;;;;;;;;;5923298;24;20209;-87
2022/05/13 11:18:14;;;;;;;2.07;1.43;;;;;;;;;;5877960;23;20199;-85
2022/05/13 11:32:14;;;;;;;6.97;3.00;;;;;;;;;;5972846;24;20214;-85
2022/05/13 11:45:57;;;;;;;7.90;1.83;;;;;;;;;;6040010;23;20198;-85
2022/05/13 11:49:31;;;;;;;7.63;3.90;;;;;;;;;;6078530;23;20176;-85
2022/05/13 11:52:58;;;;;;;6.60;1.77;;;;;;;;;;6099252;23;20180;-86
2022/05/13 11:56:10;;;;;;;9.47;3.10;;;;;;;;;;6123807;23;20264;-85
2022/05/13 11:59:16;;;;;;;6.17;2.30;;;;;;;;;;6099679;23;20177;-84
2022/05/13 12:02:38;;;;;;;5.77;2.57;;;;;;;;;;6035541;23;20295;-85
2022/05/13 12:05:48;;;;;;;;;;;;;;;;;;;;;
2022/05/13 12:29:39;;;;;;;7.37;2.80;;;;;;;;;;5945970;23;20179;-84
2022/05/13 15:32:25;;;;;;;5.23;1.97;;;;;;;;;;6146093;23;20218;-84
2022/05/13 15:34:54;;;;;;;5.93;3.83;;;;;;;;;;6131424;23;20179;-84
2022/05/13 15:37:25;;;;;;;7.57;2.07;;;;;;;;;;6130970;23;20190;-83
2022/05/13 15:39:54;;;;;;;4.63;1.50;;;;;;;;;;6131199;23;20193;-84
2022/05/13 15:42:24;;;;;;;5.93;3.13;;;;;;;;;;6131318;23;20243;-83
2022/05/13 15:44:53;;;;;;;3.60;2.47;;;;;;;;;;6157108;23;20180;-84
2022/05/13 15:47:23;;;;;;;4.67;2.23;;;;;;;;;;6156061;23;20188;-84
2022/05/13 15:52:55;;;;;;;2.97;2.13;;;;;;;;;;6130724;23;20187;-85
2022/05/13 15:55:25;;;;;;;6.80;1.33;;;;;;;;;;6131111;23;20270;-84
2022/05/13 15:57:57;;;;;;;4.60;2.10;;;;;;;;;;6131189;23;20173;-84
2022/05/13 16:00:27;;;;;;;2.73;2.03;;;;;;;;;;6130793;23;20204;-83
2022/05/13 16:02:57;;;;;;;4.30;1.73;;;;;;;;;;6156366;23;20178;-84
2022/05/13 16:05:28;;;;;;;5.33;1.57;;;;;;;;;;6130855;23;20199;-84
2022/05/13 16:07:57;;;;;;;3.53;1.53;;;;;;;;;;6130821;23;20285;-84
2022/05/13 16:10:25;;;;;;;11.17;2.73;;;;;;;;;;6131049;23;20176;-84
2022/05/13 16:12:56;;;;;;;1.17;1.07;;;;;;;;;;6156781;23;20181;-83
2022/05/13 16:15:27;;;;;;;1.77;1.40;;;;;;;;;;6156879;23;20174;-84
2022/05/13 16:17:56;;;;;;;2.50;1.43;;;;;;;;;;6130826;23;20186;-84
2022/05/13 16:20:31;;;;;;;4.13;1.70;;;;;;;;;;6130236;23;20178;-84
2022/05/13 16:23:00;;;;;;;2.80;2.03;;;;;;;;;;6130855;23;20182;-84
2022/05/13 16:25:29;;;;;;;3.87;2.07;;;;;;;;;;6130916;23;20191;-84
2022/05/13 16:28:00;;;;;;;1.87;1.50;;;;;;;;;;6156432;23;20172;-84
2022/05/13 16:30:28;;;;;;;1.53;1.43;;;;;;;;;;6155310;23;20178;-83
2022/05/13 16:32:57;;;;;;;1.83;1.30;;;;;;;;;;6143872;23;20249;-83
2022/05/13 16:35:25;;;;;;;3.10;1.30;;;;;;;;;;6155192;23;20178;-83
2022/05/13 16:37:56;;;;;;;4.03;1.63;;;;;;;;;;6154767;23;20184;-83
2022/05/13 16:40:25;;;;;;;4.30;2.20;;;;;;;;;;6155236;23;20198;-84
2022/05/13 16:42:54;;;;;;;3.27;2.07;;;;;;;;;;6156402;23;20183;-85
2022/05/13 16:45:23;;;;;;;0.97;0.87;;;;;;;;;;6155178;23;20181;-83
2022/05/13 16:47:52;;;;;;;1.90;1.80;;;;;;;;;;6156215;23;20224;-84
2022/05/13 16:50:21;;;;;;;2.87;2.03;;;;;;;;;;6155140;23;20187;-84
2022/05/13 16:52:50;;;;;;;4.97;1.73;;;;;;;;;;6156385;23;20184;-84
2022/05/13 16:55:20;;;;;;;5.93;2.10;;;;;;;;;;6155294;23;20187;-84
2022/05/13 16:57:48;;;;;;;3.13;2.23;;;;;;;;;;6155202;23;20230;-84
2022/05/13 17:00:18;;;;;;;4.13;2.00;;;;;;;;;;6155493;23;20196;-84
2022/05/13 17:02:47;;;;;;;1.43;1.37;;;;;;;;;;6179586;23;20177;-84
2022/05/13 17:05:17;;;;;;;4.33;1.50;;;;;;;;;;6155445;23;20229;-84
2022/05/13 17:07:50;;;;;;;1.97;1.10;;;;;;;;;;6156029;23;20225;-84
2022/05/13 17:21:26;;;;;;;3.00;1.33;;;;;;;;;;6154474;23;20174;-84
2022/05/13 17:23:54;;;;;;;1.67;0.80;;;;;;;;;;6154675;23;20189;-83
2022/05/13 17:26:24;;;;;;;2.90;1.20;;;;;;;;;;6154794;23;20250;-83
2022/05/13 17:28:52;;;;;;;12.57;2.90;;;;;;;;;;6154641;23;20260;-84
2022/05/13 17:31:21;;;;;;;4.27;1.73;;;;;;;;;;6154654;23;20172;-84
2022/05/13 17:33:50;;;;;;;2.83;1.73;;;;;;;;;;6154156;23;20218;-84
2022/05/13 17:36:18;;;;;;;10.53;2.93;;;;;;;;;;6155872;23;20175;-84
2022/05/13 17:38:47;;;;;;;2.87;1.57;;;;;;;;;;6179436;23;20181;-84
2022/05/13 17:41:15;;;;;;;3.73;1.90;;;;;;;;;;6154860;23;20179;-84
2022/05/13 17:43:50;;;;;;;1.73;0.87;;;;;;;;;;6154870;23;20174;-84
2022/05/13 17:46:20;;;;;;;6.87;2.90;;;;;;;;;;6155836;23;20194;-84
2022/05/13 17:48:48;;;;;;;4.90;0.87;;;;;;;;;;6154856;23;20213;-84
2022/05/13 17:51:17;;;;;;;4.97;2.30;;;;;;;;;;6154956;23;20190;-84
2022/05/13 17:53:45;;;;;;;1.70;1.50;;;;;;;;;;6154256;23;20246;-84
2022/05/13 17:56:14;;;;;;;1.73;1.63;;;;;;;;;;6154552;23;20183;-84
2022/05/13 17:58:43;;;;;;;5.63;1.73;;;;;;;;;;6154197;23;20179;-85
2022/05/13 18:01:13;;;;;;;3.80;1.60;;;;;;;;;;6154435;23;20216;-84
2022/05/13 18:03:41;;;;;;;7.83;4.87;;;;;;;;;;6154001;23;20206;-84
2022/05/13 18:06:10;;;;;;;2.03;1.57;;;;;;;;;;6154149;23;20176;-84
2022/05/13 18:08:40;;;;;;;7.33;1.83;;;;;;;;;;6154228;23;20186;-84
2022/05/13 18:11:09;;;;;;;5.13;1.93;;;;;;;;;;6154758;23;20283;-84
2022/05/13 18:13:38;;;;;;;3.77;1.57;;;;;;;;;;6179098;23;20182;-84
2022/05/13 18:16:06;;;;;;;5.50;2.03;;;;;;;;;;6154314;23;20186;-84
2022/05/13 18:18:36;;;;;;;5.23;1.73;;;;;;;;;;6155610;23;20250;-84
2022/05/13 18:21:06;;;;;;;4.30;2.43;;;;;;;;;;6155814;23;20182;-84
2022/05/13 18:23:35;;;;;;;11.73;1.47;;;;;;;;;;6154345;23;20230;-84
2022/05/13 18:26:03;;;;;;;5.60;2.10;;;;;;;;;;6155683;23;20182;-84
2022/05/13 18:28:33;;;;;;;13.43;3.13;;;;;;;;;;6154431;23;20184;-84
2022/05/13 18:31:04;;;;;;;3.73;1.90;;;;;;;;;;6153750;23;20211;-85
2022/05/13 18:33:33;;;;;;;1.97;0.87;;;;;;;;;;6153981;23;20212;-84
2022/05/13 18:36:03;;;;;;;3.47;1.07;;;;;;;;;;6153796;23;20180;-84
2022/05/13 18:38:31;;;;;;;5.43;1.70;;;;;;;;;;6155498;23;20172;-85
2022/05/13 18:46:39;;;;;;;7.30;1.60;;;;;;;;;;6154283;23;20195;-84
2022/05/13 18:49:08;;;;;;;5.93;2.93;;;;;;;;;;6155373;23;20174;-84
2022/05/13 18:51:38;;;;;;;8.10;2.63;;;;;;;;;;6153942;23;20180;-84
2022/05/13 18:54:07;;;;;;;15.57;4.90;;;;;;;;;;6155131;23;20178;-84
2022/05/13 18:56:38;;;;;;;4.03;2.00;;;;;;;;;;6154426;23;20185;-84
2022/05/13 18:59:06;;;;;;;13.40;2.37;;;;;;;;;;6153939;23;20177;-84
2022/05/13 19:01:35;;;;;;;10.87;2.90;;;;;;;;;;6155414;23;20199;-84
2022/05/13 19:04:04;;;;;;;11.57;2.37;;;;;;;;;;6178866;23;20199;-84
2022/05/13 19:06:34;;;;;;;7.00;2.20;;;;;;;;;;6154078;23;20171;-84
2022/05/13 19:09:04;;;;;;;3.60;1.33;;;;;;;;;;6155832;23;20164;-84
2022/05/13 19:11:32;;;;;;;3.27;1.60;;;;;;;;;;6155667;23;20219;-84
2022/05/13 19:14:00;;;;;;;4.80;2.80;;;;;;;;;;6154007;23;20176;-84
2022/05/13 19:16:29;;;;;;;5.20;1.70;;;;;;;;;;6155657;23;20180;-84
2022/05/13 19:18:58;;;;;;;3.67;1.43;;;;;;;;;;6153795;23;20180;-84
2022/05/13 19:21:28;;;;;;;9.77;2.77;;;;;;;;;;6154330;23;20210;-84
2022/05/13 19:23:56;;;;;;;2.00;1.87;;;;;;;;;;6155128;23;20176;-84
2022/05/13 19:26:27;;;;;;;6.03;1.67;;;;;;;;;;6178672;23;20187;-84
2022/05/13 19:29:01;;;;;;;7.17;2.70;;;;;;;;;;6153790;23;20202;-84
2022/05/13 19:31:30;;;;;;;5.77;2.50;;;;;;;;;;6154164;23;20176;-84
2022/05/13 19:34:00;;;;;;;3.17;2.10;;;;;;;;;;6155191;23;20207;-84
2022/05/13 19:36:29;;;;;;;4.30;2.67;;;;;;;;;;6129543;23;20179;-84
2022/05/13 19:38:58;;;;;;;6.80;2.50;;;;;;;;;;6129138;23;20185;-84
2022/05/13 19:41:33;;;;;;;1.60;1.33;;;;;;;;;;6129348;23;20185;-84
2022/05/13 19:44:02;;;;;;;2.10;1.20;;;;;;;;;;6129425;23;20183;-84
2022/05/13 19:46:32;;;;;;;4.03;2.00;;;;;;;;;;6129310;23;20172;-84
2022/05/13 19:49:02;;;;;;;7.60;2.37;;;;;;;;;;6153891;23;20206;-84
2022/05/13 19:51:32;;;;;;;2.20;1.50;;;;;;;;;;6129357;23;20178;-84
2022/05/13 19:54:07;;;;;;;6.03;1.90;;;;;;;;;;6129175;23;20214;-84
2022/05/13 19:56:37;;;;;;;10.53;3.13;;;;;;;;;;6131062;23;20272;-84
2022/05/13 19:59:05;;;;;;;1.57;1.20;;;;;;;;;;6131063;23;20186;-84
2022/05/13 20:01:33;;;;;;;1.60;0.97;;;;;;;;;;6130840;23;20178;-84
2022/05/13 20:04:02;;;;;;;10.80;2.97;;;;;;;;;;6130674;23;20199;-84
2022/05/13 20:12:08;;;;;;;5.00;1.83;;;;;;;;;;6155572;23;20231;-84
2022/05/13 20:14:47;;;;;;;8.27;2.60;;;;;;;;;;6156396;23;20194;-84
2022/05/13 20:17:16;;;;;;;2.17;1.53;;;;;;;;;;6156634;23;20178;-84
2022/05/13 20:25:17;;;;;;;2.33;1.37;;;;;;;;;;6131199;23;20212;-84
2022/05/13 20:27:47;;;;;;;4.30;2.03;;;;;;;;;;6130423;23;20206;-84
2022/05/13 20:30:16;;;;;;;5.10;2.33;;;;;;;;;;6130813;23;20194;-84
2022/05/13 20:32:45;;;;;;;6.77;2.10;;;;;;;;;;6138519;23;20210;-84
2022/05/13 20:35:14;;;;;;;24.60;4.70;;;;;;;;;;6156297;23;20178;-84
2022/05/13 20:37:43;;;;;;;4.90;2.10;;;;;;;;;;6155246;23;20261;-84
2022/05/13 20:40:13;;;;;;;3.20;2.00;;;;;;;;;;6156204;23;20167;-84
2022/05/13 20:42:42;;;;;;;1.90;1.10;;;;;;;;;;6156580;23;20250;-84